sensor_id;sensor_type;location;lat;lon;timestamp;P1;durP1;ratioP1;P2;durP2;ratioP2
2544;SDS011;36212;48.838;9.142;2022-09-09T00:02:21;2.00;;;1.70;;
2544;SDS011;36212;48.838;9.142;2022-09-09T00:05:13;3.13;;;2.10;;
2544;SDS011;36212;48.838;9.142;2022-09-09T00:08:33;4.90;;;1.90;;
2544;SDS011;36212;48.838;9.142;2022-09-09T00:11:32;2.38;;;2.17;;
2544;SDS011;36212;48.838;9.142;2022-09-09T00:23:27;1.80;;;1.70;;
2544;SDS011;36212;48.838;9.142;2022-09-09T00:32:29;3.33;;;2.08;;
2544;SDS011;36212;48.838;9.142;2022-09-09T00:39:01;2.17;;;1.75;;
2544;SDS011;36212;48.838;9.142;2022-09-09T00:41:19;2.75;;;1.83;;
2544;SDS011;36212;48.838;9.142;2022-09-09T00:53:58;1.50;;;1.40;;
2544;SDS011;36212;48.838;9.142;2022-09-09T00:56:35;1.95;;;1.50;;
2544;SDS011;36212;48.838;9.142;2022-09-09T01:02:28;2.55;;;1.50;;
2544;SDS011;36212;48.838;9.142;2022-09-09T01:29:18;1.73;;;1.63;;
2544;SDS011;36212;48.838;9.142;2022-09-09T01:31:58;2.75;;;1.88;;
2544;SDS011;36212;48.838;9.142;2022-09-09T01:34:50;2.15;;;1.42;;
2544;SDS011;36212;48.838;9.142;2022-09-09T01:37:23;1.85;;;1.75;;
2544;SDS011;36212;48.838;9.142;2022-09-09T01:39:55;3.47;;;1.85;;
2544;SDS011;36212;48.838;9.142;2022-09-09T01:42:27;4.47;;;1.67;;
2544;SDS011;36212;48.838;9.142;2022-09-09T01:44:59;2.35;;;2.15;;
2544;SDS011;36212;48.838;9.142;2022-09-09T01:47:31;2.25;;;1.60;;
2544;SDS011;36212;48.838;9.142;2022-09-09T01:50:04;2.65;;;1.75;;
2544;SDS011;36212;48.838;9.142;2022-09-09T01:52:39;2.22;;;1.88;;
2544;SDS011;36212;48.838;9.142;2022-09-09T01:55:14;3.50;;;1.75;;
2544;SDS011;36212;48.838;9.142;2022-09-09T02:01:02;2.20;;;1.60;;
2544;SDS011;36212;48.838;9.142;2022-09-09T02:04:36;1.98;;;1.80;;
2544;SDS011;36212;48.838;9.142;2022-09-09T02:11:01;2.22;;;1.70;;
2544;SDS011;36212;48.838;9.142;2022-09-09T02:13:41;4.22;;;2.17;;
2544;SDS011;36212;48.838;9.142;2022-09-09T02:16:22;2.28;;;1.55;;
2544;SDS011;36212;48.838;9.142;2022-09-09T02:19:28;2.50;;;2.35;;
2544;SDS011;36212;48.838;9.142;2022-09-09T02:22:10;1.90;;;1.77;;
2544;SDS011;36212;48.838;9.142;2022-09-09T02:24:43;1.80;;;1.70;;
2544;SDS011;36212;48.838;9.142;2022-09-09T02:27:17;2.92;;;1.80;;
2544;SDS011;36212;48.838;9.142;2022-09-09T02:29:52;1.55;;;1.45;;
2544;SDS011;36212;48.838;9.142;2022-09-09T02:32:45;2.80;;;1.55;;
2544;SDS011;36212;48.838;9.142;2022-09-09T02:35:22;2.38;;;1.65;;
2544;SDS011;36212;48.838;9.142;2022-09-09T02:37:59;1.40;;;1.30;;
2544;SDS011;36212;48.838;9.142;2022-09-09T02:40:38;3.83;;;1.92;;
2544;SDS011;36212;48.838;9.142;2022-09-09T02:43:10;1.70;;;1.60;;
2544;SDS011;36212;48.838;9.142;2022-09-09T02:46:08;2.75;;;1.60;;
2544;SDS011;36212;48.838;9.142;2022-09-09T02:52:15;1.80;;;1.65;;
2544;SDS011;36212;48.838;9.142;2022-09-09T02:55:05;2.10;;;1.52;;
2544;SDS011;36212;48.838;9.142;2022-09-09T02:57:59;2.85;;;1.83;;
2544;SDS011;36212;48.838;9.142;2022-09-09T03:00:39;1.85;;;1.70;;
2544;SDS011;36212;48.838;9.142;2022-09-09T03:03:11;1.85;;;1.75;;
2544;SDS011;36212;48.838;9.142;2022-09-09T03:05:44;1.95;;;1.70;;
2544;SDS011;36212;48.838;9.142;2022-09-09T03:08:16;1.63;;;1.52;;
2544;SDS011;36212;48.838;9.142;2022-09-09T03:10:48;1.60;;;1.50;;
2544;SDS011;36212;48.838;9.142;2022-09-09T03:13:21;2.55;;;1.70;;
2544;SDS011;36212;48.838;9.142;2022-09-09T03:15:53;2.28;;;1.20;;
2544;SDS011;36212;48.838;9.142;2022-09-09T03:18:25;1.75;;;1.35;;
2544;SDS011;36212;48.838;9.142;2022-09-09T03:20:58;1.50;;;1.40;;
2544;SDS011;36212;48.838;9.142;2022-09-09T03:23:31;1.40;;;1.30;;
2544;SDS011;36212;48.838;9.142;2022-09-09T03:26:03;1.35;;;1.25;;
2544;SDS011;36212;48.838;9.142;2022-09-09T03:28:34;1.75;;;1.50;;
2544;SDS011;36212;48.838;9.142;2022-09-09T03:31:07;2.85;;;1.33;;
2544;SDS011;36212;48.838;9.142;2022-09-09T03:33:41;1.45;;;1.35;;
2544;SDS011;36212;48.838;9.142;2022-09-09T03:36:14;1.40;;;1.30;;
2544;SDS011;36212;48.838;9.142;2022-09-09T03:38:46;3.10;;;1.30;;
2544;SDS011;36212;48.838;9.142;2022-09-09T03:41:18;1.30;;;1.20;;
2544;SDS011;36212;48.838;9.142;2022-09-09T03:43:54;2.80;;;1.40;;
2544;SDS011;36212;48.838;9.142;2022-09-09T03:46:36;3.15;;;1.60;;
2544;SDS011;36212;48.838;9.142;2022-09-09T03:49:09;1.40;;;1.20;;
2544;SDS011;36212;48.838;9.142;2022-09-09T03:51:42;1.80;;;1.65;;
2544;SDS011;36212;48.838;9.142;2022-09-09T03:54:14;2.42;;;1.40;;
2544;SDS011;36212;48.838;9.142;2022-09-09T03:56:46;2.67;;;1.20;;
2544;SDS011;36212;48.838;9.142;2022-09-09T03:59:18;1.35;;;1.23;;
2544;SDS011;36212;48.838;9.142;2022-09-09T04:01:55;1.48;;;1.38;;
2544;SDS011;36212;48.838;9.142;2022-09-09T04:04:29;1.52;;;1.40;;
2544;SDS011;36212;48.838;9.142;2022-09-09T04:07:01;5.20;;;1.63;;
2544;SDS011;36212;48.838;9.142;2022-09-09T04:09:36;2.35;;;1.55;;
2544;SDS011;36212;48.838;9.142;2022-09-09T04:12:08;2.55;;;1.60;;
2544;SDS011;36212;48.838;9.142;2022-09-09T04:14:43;1.30;;;1.20;;
2544;SDS011;36212;48.838;9.142;2022-09-09T04:17:15;1.35;;;1.20;;
2544;SDS011;36212;48.838;9.142;2022-09-09T04:19:48;2.00;;;1.40;;
2544;SDS011;36212;48.838;9.142;2022-09-09T04:22:20;1.75;;;1.13;;
2544;SDS011;36212;48.838;9.142;2022-09-09T04:24:53;3.08;;;1.30;;
2544;SDS011;36212;48.838;9.142;2022-09-09T04:27:25;1.85;;;1.75;;
2544;SDS011;36212;48.838;9.142;2022-09-09T04:29:57;1.85;;;1.15;;
2544;SDS011;36212;48.838;9.142;2022-09-09T04:32:32;1.30;;;1.20;;
2544;SDS011;36212;48.838;9.142;2022-09-09T04:35:06;1.38;;;1.27;;
2544;SDS011;36212;48.838;9.142;2022-09-09T04:37:38;1.95;;;1.30;;
2544;SDS011;36212;48.838;9.142;2022-09-09T04:40:10;1.73;;;1.52;;
2544;SDS011;36212;48.838;9.142;2022-09-09T04:42:42;2.05;;;1.40;;
2544;SDS011;36212;48.838;9.142;2022-09-09T04:45:16;2.42;;;1.45;;
2544;SDS011;36212;48.838;9.142;2022-09-09T04:47:52;1.48;;;1.38;;
2544;SDS011;36212;48.838;9.142;2022-09-09T04:50:25;2.03;;;1.25;;
2544;SDS011;36212;48.838;9.142;2022-09-09T04:53:01;1.65;;;1.55;;
2544;SDS011;36212;48.838;9.142;2022-09-09T04:55:35;2.85;;;1.25;;
2544;SDS011;36212;48.838;9.142;2022-09-09T04:58:08;2.30;;;1.50;;
2544;SDS011;36212;48.838;9.142;2022-09-09T05:00:40;1.40;;;1.30;;
2544;SDS011;36212;48.838;9.142;2022-09-09T05:03:12;1.50;;;1.40;;
2544;SDS011;36212;48.838;9.142;2022-09-09T05:05:44;2.58;;;1.40;;
2544;SDS011;36212;48.838;9.142;2022-09-09T05:08:17;2.47;;;1.70;;
2544;SDS011;36212;48.838;9.142;2022-09-09T05:10:50;2.75;;;1.50;;
2544;SDS011;36212;48.838;9.142;2022-09-09T05:13:22;3.22;;;1.50;;
2544;SDS011;36212;48.838;9.142;2022-09-09T05:15:58;2.13;;;1.42;;
2544;SDS011;36212;48.838;9.142;2022-09-09T05:18:30;3.80;;;1.70;;
2544;SDS011;36212;48.838;9.142;2022-09-09T05:21:02;2.42;;;1.80;;
2544;SDS011;36212;48.838;9.142;2022-09-09T05:23:34;2.85;;;1.60;;
2544;SDS011;36212;48.838;9.142;2022-09-09T05:26:09;1.90;;;1.73;;
2544;SDS011;36212;48.838;9.142;2022-09-09T05:28:50;1.60;;;1.40;;
2544;SDS011;36212;48.838;9.142;2022-09-09T05:31:22;1.50;;;1.40;;
2544;SDS011;36212;48.838;9.142;2022-09-09T05:33:55;2.47;;;1.27;;
2544;SDS011;36212;48.838;9.142;2022-09-09T05:36:29;2.55;;;1.60;;
2544;SDS011;36212;48.838;9.142;2022-09-09T05:39:00;2.72;;;1.73;;
2544;SDS011;36212;48.838;9.142;2022-09-09T05:41:33;2.40;;;1.48;;
2544;SDS011;36212;48.838;9.142;2022-09-09T05:44:06;1.98;;;1.67;;
2544;SDS011;36212;48.838;9.142;2022-09-09T05:46:38;1.80;;;1.30;;
2544;SDS011;36212;48.838;9.142;2022-09-09T05:49:10;2.47;;;1.55;;
2544;SDS011;36212;48.838;9.142;2022-09-09T05:51:42;3.08;;;1.50;;
2544;SDS011;36212;48.838;9.142;2022-09-09T05:54:17;5.05;;;1.80;;
2544;SDS011;36212;48.838;9.142;2022-09-09T05:56:49;1.85;;;1.35;;
2544;SDS011;36212;48.838;9.142;2022-09-09T05:59:23;2.65;;;2.08;;
2544;SDS011;36212;48.838;9.142;2022-09-09T06:01:55;5.47;;;2.03;;
2544;SDS011;36212;48.838;9.142;2022-09-09T06:04:28;1.95;;;1.60;;
2544;SDS011;36212;48.838;9.142;2022-09-09T06:07:00;3.35;;;1.60;;
2544;SDS011;36212;48.838;9.142;2022-09-09T06:09:32;1.85;;;1.60;;
2544;SDS011;36212;48.838;9.142;2022-09-09T06:12:04;2.33;;;1.48;;
2544;SDS011;36212;48.838;9.142;2022-09-09T06:14:37;1.58;;;1.40;;
2544;SDS011;36212;48.838;9.142;2022-09-09T06:17:13;2.53;;;1.40;;
2544;SDS011;36212;48.838;9.142;2022-09-09T06:19:45;2.10;;;1.50;;
2544;SDS011;36212;48.838;9.142;2022-09-09T06:22:17;1.77;;;1.45;;
2544;SDS011;36212;48.838;9.142;2022-09-09T06:24:49;4.05;;;1.65;;
2544;SDS011;36212;48.838;9.142;2022-09-09T06:27:23;2.40;;;1.60;;
2544;SDS011;36212;48.838;9.142;2022-09-09T06:29:57;3.85;;;1.65;;
2544;SDS011;36212;48.838;9.142;2022-09-09T06:32:29;1.50;;;1.40;;
2544;SDS011;36212;48.838;9.142;2022-09-09T06:35:03;2.50;;;1.70;;
2544;SDS011;36212;48.838;9.142;2022-09-09T06:37:36;1.50;;;1.40;;
2544;SDS011;36212;48.838;9.142;2022-09-09T06:40:08;1.77;;;1.67;;
2544;SDS011;36212;48.838;9.142;2022-09-09T06:42:41;1.63;;;1.50;;
2544;SDS011;36212;48.838;9.142;2022-09-09T06:45:13;1.97;;;1.57;;
2544;SDS011;36212;48.838;9.142;2022-09-09T06:47:45;2.60;;;1.70;;
2544;SDS011;36212;48.838;9.142;2022-09-09T06:50:17;1.50;;;1.40;;
2544;SDS011;36212;48.838;9.142;2022-09-09T06:52:51;2.00;;;1.43;;
2544;SDS011;36212;48.838;9.142;2022-09-09T06:55:23;4.80;;;1.63;;
2544;SDS011;36212;48.838;9.142;2022-09-09T06:57:55;2.40;;;1.50;;
2544;SDS011;36212;48.838;9.142;2022-09-09T07:00:28;1.50;;;1.40;;
2544;SDS011;36212;48.838;9.142;2022-09-09T07:03:01;1.63;;;1.53;;
2544;SDS011;36212;48.838;9.142;2022-09-09T07:05:34;2.23;;;1.73;;
2544;SDS011;36212;48.838;9.142;2022-09-09T07:08:06;2.80;;;1.77;;
2544;SDS011;36212;48.838;9.142;2022-09-09T07:10:38;2.30;;;1.93;;
2544;SDS011;36212;48.838;9.142;2022-09-09T07:13:10;4.17;;;1.90;;
2544;SDS011;36212;48.838;9.142;2022-09-09T07:15:45;2.53;;;2.13;;
2544;SDS011;36212;48.838;9.142;2022-09-09T07:18:18;3.47;;;2.17;;
2544;SDS011;36212;48.838;9.142;2022-09-09T07:20:54;2.07;;;1.47;;
2544;SDS011;36212;48.838;9.142;2022-09-09T07:23:27;2.47;;;1.90;;
2544;SDS011;36212;48.838;9.142;2022-09-09T07:26:10;2.40;;;1.60;;
2544;SDS011;36212;48.838;9.142;2022-09-09T07:28:46;3.80;;;1.73;;
2544;SDS011;36212;48.838;9.142;2022-09-09T07:31:23;1.63;;;1.50;;
2544;SDS011;36212;48.838;9.142;2022-09-09T07:34:00;1.60;;;1.50;;
2544;SDS011;36212;48.838;9.142;2022-09-09T07:36:37;2.10;;;1.73;;
2544;SDS011;36212;48.838;9.142;2022-09-09T07:39:12;2.33;;;2.13;;
2544;SDS011;36212;48.838;9.142;2022-09-09T07:41:47;1.63;;;1.53;;
2544;SDS011;36212;48.838;9.142;2022-09-09T07:44:22;2.80;;;1.53;;
2544;SDS011;36212;48.838;9.142;2022-09-09T07:46:57;2.23;;;1.80;;
2544;SDS011;36212;48.838;9.142;2022-09-09T07:49:29;2.33;;;1.83;;
2544;SDS011;36212;48.838;9.142;2022-09-09T07:52:04;2.77;;;1.93;;
2544;SDS011;36212;48.838;9.142;2022-09-09T07:54:37;1.70;;;1.60;;
2544;SDS011;36212;48.838;9.142;2022-09-09T07:57:10;2.23;;;1.80;;
2544;SDS011;36212;48.838;9.142;2022-09-09T07:59:45;2.37;;;2.00;;
2544;SDS011;36212;48.838;9.142;2022-09-09T08:02:17;3.77;;;1.50;;
2544;SDS011;36212;48.838;9.142;2022-09-09T08:04:49;2.17;;;1.40;;
2544;SDS011;36212;48.838;9.142;2022-09-09T08:07:23;3.73;;;1.50;;
2544;SDS011;36212;48.838;9.142;2022-09-09T08:09:56;3.40;;;1.57;;
2544;SDS011;36212;48.838;9.142;2022-09-09T08:12:28;1.97;;;1.67;;
2544;SDS011;36212;48.838;9.142;2022-09-09T08:15:00;2.40;;;1.53;;
2544;SDS011;36212;48.838;9.142;2022-09-09T08:17:33;2.60;;;1.40;;
2544;SDS011;36212;48.838;9.142;2022-09-09T08:20:08;3.40;;;1.60;;
2544;SDS011;36212;48.838;9.142;2022-09-09T08:22:41;2.23;;;1.47;;
2544;SDS011;36212;48.838;9.142;2022-09-09T08:25:13;3.23;;;1.40;;
2544;SDS011;36212;48.838;9.142;2022-09-09T08:27:45;2.17;;;1.40;;
2544;SDS011;36212;48.838;9.142;2022-09-09T08:30:17;1.63;;;1.30;;
2544;SDS011;36212;48.838;9.142;2022-09-09T08:32:49;2.00;;;1.80;;
2544;SDS011;36212;48.838;9.142;2022-09-09T08:35:24;1.23;;;1.13;;
2544;SDS011;36212;48.838;9.142;2022-09-09T08:37:56;2.77;;;1.43;;
2544;SDS011;36212;48.838;9.142;2022-09-09T08:40:29;1.63;;;1.23;;
2544;SDS011;36212;48.838;9.142;2022-09-09T08:43:10;2.80;;;1.43;;
2544;SDS011;36212;48.838;9.142;2022-09-09T08:52:24;1.53;;;1.23;;
2544;SDS011;36212;48.838;9.142;2022-09-09T08:55:19;1.97;;;1.40;;
2544;SDS011;36212;48.838;9.142;2022-09-09T08:58:17;1.90;;;1.40;;
2544;SDS011;36212;48.838;9.142;2022-09-09T09:07:13;2.30;;;1.50;;
2544;SDS011;36212;48.838;9.142;2022-09-09T09:16:23;1.67;;;1.30;;
2544;SDS011;36212;48.838;9.142;2022-09-09T09:19:23;3.57;;;1.67;;
2544;SDS011;36212;48.838;9.142;2022-09-09T09:25:13;3.27;;;1.30;;
2544;SDS011;36212;48.838;9.142;2022-09-09T09:30:51;4.40;;;1.77;;
2544;SDS011;36212;48.838;9.142;2022-09-09T09:33:41;2.60;;;1.47;;
2544;SDS011;36212;48.838;9.142;2022-09-09T09:36:24;5.23;;;1.30;;
2544;SDS011;36212;48.838;9.142;2022-09-09T09:39:21;4.80;;;1.50;;
2544;SDS011;36212;48.838;9.142;2022-09-09T09:42:19;4.10;;;1.43;;
2544;SDS011;36212;48.838;9.142;2022-09-09T09:44:54;1.97;;;1.30;;
2544;SDS011;36212;48.838;9.142;2022-09-09T09:47:37;1.70;;;1.40;;
2544;SDS011;36212;48.838;9.142;2022-09-09T09:50:18;2.50;;;1.40;;
2544;SDS011;36212;48.838;9.142;2022-09-09T09:52:55;1.40;;;1.30;;
2544;SDS011;36212;48.838;9.142;2022-09-09T09:55:31;1.23;;;1.13;;
2544;SDS011;36212;48.838;9.142;2022-09-09T09:58:20;1.00;;;0.90;;
2544;SDS011;36212;48.838;9.142;2022-09-09T10:00:53;2.70;;;1.27;;
2544;SDS011;36212;48.838;9.142;2022-09-09T10:03:29;1.60;;;1.20;;
2544;SDS011;36212;48.838;9.142;2022-09-09T10:06:09;3.53;;;1.60;;
2544;SDS011;36212;48.838;9.142;2022-09-09T10:08:44;1.67;;;1.30;;
2544;SDS011;36212;48.838;9.142;2022-09-09T10:11:26;3.63;;;1.10;;
2544;SDS011;36212;48.838;9.142;2022-09-09T10:27:09;3.37;;;1.60;;
2544;SDS011;36212;48.838;9.142;2022-09-09T10:30:23;3.67;;;1.70;;
2544;SDS011;36212;48.838;9.142;2022-09-09T10:36:23;1.63;;;1.13;;
2544;SDS011;36212;48.838;9.142;2022-09-09T10:39:00;2.50;;;1.67;;
2544;SDS011;36212;48.838;9.142;2022-09-09T10:42:05;3.20;;;1.10;;
2544;SDS011;36212;48.838;9.142;2022-09-09T10:51:08;1.80;;;1.30;;
2544;SDS011;36212;48.838;9.142;2022-09-09T11:00:10;2.70;;;1.43;;
2544;SDS011;36212;48.838;9.142;2022-09-09T11:03:00;1.97;;;1.20;;
2544;SDS011;36212;48.838;9.142;2022-09-09T11:08:26;1.77;;;1.23;;
2544;SDS011;36212;48.838;9.142;2022-09-09T11:11:18;3.53;;;1.53;;
2544;SDS011;36212;48.838;9.142;2022-09-09T11:14:15;3.53;;;1.73;;
2544;SDS011;36212;48.838;9.142;2022-09-09T11:17:25;4.50;;;1.90;;
2544;SDS011;36212;48.838;9.142;2022-09-09T11:20:11;2.30;;;1.60;;
2544;SDS011;36212;48.838;9.142;2022-09-09T11:22:53;2.40;;;1.63;;
2544;SDS011;36212;48.838;9.142;2022-09-09T11:25:47;3.20;;;1.57;;
2544;SDS011;36212;48.838;9.142;2022-09-09T11:41:14;1.60;;;1.10;;
2544;SDS011;36212;48.838;9.142;2022-09-09T11:43:52;2.70;;;1.30;;
2544;SDS011;36212;48.838;9.142;2022-09-09T11:46:32;1.77;;;1.00;;
2544;SDS011;36212;48.838;9.142;2022-09-09T11:52:25;1.30;;;1.20;;
2544;SDS011;36212;48.838;9.142;2022-09-09T11:55:24;1.13;;;1.03;;
2544;SDS011;36212;48.838;9.142;2022-09-09T11:58:03;1.30;;;0.90;;
2544;SDS011;36212;48.838;9.142;2022-09-09T12:00:58;1.40;;;1.13;;
2544;SDS011;36212;48.838;9.142;2022-09-09T12:06:54;2.37;;;1.03;;
2544;SDS011;36212;48.838;9.142;2022-09-09T12:10:02;1.93;;;1.83;;
2544;SDS011;36212;48.838;9.142;2022-09-09T12:12:55;2.17;;;1.10;;
2544;SDS011;36212;48.838;9.142;2022-09-09T12:15:46;1.63;;;1.30;;
2544;SDS011;36212;48.838;9.142;2022-09-09T12:18:26;1.70;;;1.00;;
2544;SDS011;36212;48.838;9.142;2022-09-09T12:24:20;1.10;;;1.00;;
2544;SDS011;36212;48.838;9.142;2022-09-09T12:27:24;1.93;;;1.20;;
2544;SDS011;36212;48.838;9.142;2022-09-09T12:30:08;2.77;;;1.07;;
2544;SDS011;36212;48.838;9.142;2022-09-09T12:32:45;1.53;;;1.30;;
2544;SDS011;36212;48.838;9.142;2022-09-09T12:35:30;1.93;;;1.20;;
2544;SDS011;36212;48.838;9.142;2022-09-09T12:38:03;1.50;;;1.00;;
2544;SDS011;36212;48.838;9.142;2022-09-09T12:40:54;1.20;;;1.10;;
2544;SDS011;36212;48.838;9.142;2022-09-09T12:43:32;2.03;;;1.00;;
2544;SDS011;36212;48.838;9.142;2022-09-09T12:46:11;2.60;;;0.90;;
2544;SDS011;36212;48.838;9.142;2022-09-09T12:49:26;1.47;;;0.90;;
2544;SDS011;36212;48.838;9.142;2022-09-09T12:52:13;3.00;;;1.20;;
2544;SDS011;36212;48.838;9.142;2022-09-09T12:55:07;1.07;;;0.97;;
2544;SDS011;36212;48.838;9.142;2022-09-09T12:57:59;2.20;;;1.07;;
2544;SDS011;36212;48.838;9.142;2022-09-09T13:00:36;1.20;;;0.87;;
2544;SDS011;36212;48.838;9.142;2022-09-09T13:03:20;2.23;;;0.90;;
2544;SDS011;36212;48.838;9.142;2022-09-09T13:05:53;1.17;;;0.90;;
2544;SDS011;36212;48.838;9.142;2022-09-09T13:08:52;1.63;;;1.00;;
2544;SDS011;36212;48.838;9.142;2022-09-09T13:11:30;1.70;;;0.87;;
2544;SDS011;36212;48.838;9.142;2022-09-09T13:14:26;1.77;;;1.17;;
2544;SDS011;36212;48.838;9.142;2022-09-09T13:17:06;1.10;;;0.90;;
2544;SDS011;36212;48.838;9.142;2022-09-09T13:19:52;3.77;;;1.20;;
2544;SDS011;36212;48.838;9.142;2022-09-09T13:22:30;3.53;;;1.33;;
2544;SDS011;36212;48.838;9.142;2022-09-09T13:30:35;2.13;;;1.10;;
2544;SDS011;36212;48.838;9.142;2022-09-09T13:38:38;3.20;;;1.00;;
2544;SDS011;36212;48.838;9.142;2022-09-09T13:41:34;1.37;;;1.20;;
2544;SDS011;36212;48.838;9.142;2022-09-09T13:44:29;2.30;;;1.37;;
2544;SDS011;36212;48.838;9.142;2022-09-09T13:50:20;1.83;;;1.30;;
2544;SDS011;36212;48.838;9.142;2022-09-09T13:52:57;1.50;;;1.10;;
2544;SDS011;36212;48.838;9.142;2022-09-09T13:55:30;2.57;;;1.57;;
2544;SDS011;36212;48.838;9.142;2022-09-09T13:58:03;1.47;;;0.93;;
2544;SDS011;36212;48.838;9.142;2022-09-09T14:00:45;1.67;;;1.07;;
2544;SDS011;36212;48.838;9.142;2022-09-09T14:03:19;3.77;;;1.10;;
2544;SDS011;36212;48.838;9.142;2022-09-09T14:05:52;0.80;;;0.80;;
2544;SDS011;36212;48.838;9.142;2022-09-09T14:08:26;1.53;;;1.00;;
2544;SDS011;36212;48.838;9.142;2022-09-09T14:11:08;4.33;;;1.20;;
2544;SDS011;36212;48.838;9.142;2022-09-09T14:13:44;1.23;;;1.00;;
2544;SDS011;36212;48.838;9.142;2022-09-09T14:16:18;1.17;;;1.00;;
2544;SDS011;36212;48.838;9.142;2022-09-09T14:18:51;1.07;;;0.90;;
2544;SDS011;36212;48.838;9.142;2022-09-09T14:21:23;1.20;;;0.90;;
2544;SDS011;36212;48.838;9.142;2022-09-09T14:23:57;2.97;;;0.97;;
2544;SDS011;36212;48.838;9.142;2022-09-09T14:26:29;1.40;;;1.30;;
2544;SDS011;36212;48.838;9.142;2022-09-09T14:29:01;1.70;;;1.17;;
2544;SDS011;36212;48.838;9.142;2022-09-09T14:31:34;3.13;;;1.10;;
2544;SDS011;36212;48.838;9.142;2022-09-09T14:34:06;1.30;;;0.90;;
2544;SDS011;36212;48.838;9.142;2022-09-09T14:36:40;1.47;;;1.00;;
2544;SDS011;36212;48.838;9.142;2022-09-09T14:39:14;1.70;;;1.00;;
2544;SDS011;36212;48.838;9.142;2022-09-09T14:41:47;1.67;;;1.10;;
2544;SDS011;36212;48.838;9.142;2022-09-09T14:44:19;1.37;;;0.90;;
2544;SDS011;36212;48.838;9.142;2022-09-09T14:46:52;1.30;;;1.00;;
2544;SDS011;36212;48.838;9.142;2022-09-09T14:49:24;1.37;;;0.90;;
2544;SDS011;36212;48.838;9.142;2022-09-09T14:51:56;1.00;;;0.90;;
2544;SDS011;36212;48.838;9.142;2022-09-09T14:54:28;2.97;;;0.97;;
2544;SDS011;36212;48.838;9.142;2022-09-09T14:57:01;2.97;;;1.20;;
2544;SDS011;36212;48.838;9.142;2022-09-09T14:59:33;1.27;;;0.90;;
2544;SDS011;36212;48.838;9.142;2022-09-09T15:02:07;1.47;;;1.00;;
2544;SDS011;36212;48.838;9.142;2022-09-09T15:04:40;2.10;;;1.00;;
2544;SDS011;36212;48.838;9.142;2022-09-09T15:07:12;2.60;;;1.47;;
2544;SDS011;36212;48.838;9.142;2022-09-09T15:09:44;1.20;;;0.87;;
2544;SDS011;36212;48.838;9.142;2022-09-09T15:12:19;1.00;;;0.90;;
2544;SDS011;36212;48.838;9.142;2022-09-09T15:14:51;0.80;;;0.80;;
2544;SDS011;36212;48.838;9.142;2022-09-09T15:17:26;1.00;;;0.80;;
2544;SDS011;36212;48.838;9.142;2022-09-09T15:19:58;1.83;;;0.90;;
2544;SDS011;36212;48.838;9.142;2022-09-09T15:22:31;1.20;;;0.90;;
2544;SDS011;36212;48.838;9.142;2022-09-09T15:25:04;1.27;;;1.03;;
2544;SDS011;36212;48.838;9.142;2022-09-09T15:27:38;1.00;;;0.90;;
2544;SDS011;36212;48.838;9.142;2022-09-09T15:30:10;1.07;;;0.97;;
2544;SDS011;36212;48.838;9.142;2022-09-09T15:32:43;1.00;;;0.90;;
2544;SDS011;36212;48.838;9.142;2022-09-09T15:35:15;1.43;;;1.03;;
2544;SDS011;36212;48.838;9.142;2022-09-09T15:37:47;1.00;;;0.90;;
2544;SDS011;36212;48.838;9.142;2022-09-09T15:40:19;1.30;;;1.00;;
2544;SDS011;36212;48.838;9.142;2022-09-09T15:42:51;2.53;;;0.90;;
2544;SDS011;36212;48.838;9.142;2022-09-09T15:45:23;1.00;;;0.90;;
2544;SDS011;36212;48.838;9.142;2022-09-09T15:47:56;2.13;;;1.57;;
2544;SDS011;36212;48.838;9.142;2022-09-09T15:50:28;1.50;;;1.40;;
2544;SDS011;36212;48.838;9.142;2022-09-09T15:53:02;4.50;;;1.20;;
2544;SDS011;36212;48.838;9.142;2022-09-09T15:55:36;2.80;;;2.60;;
2544;SDS011;36212;48.838;9.142;2022-09-09T15:58:08;1.50;;;1.37;;
2544;SDS011;36212;48.838;9.142;2022-09-09T16:00:42;1.53;;;1.00;;
2544;SDS011;36212;48.838;9.142;2022-09-09T16:03:15;3.90;;;1.10;;
2544;SDS011;36212;48.838;9.142;2022-09-09T16:05:50;1.60;;;1.10;;
2544;SDS011;36212;48.838;9.142;2022-09-09T16:08:22;1.53;;;1.10;;
2544;SDS011;36212;48.838;9.142;2022-09-09T16:10:55;3.33;;;1.20;;
2544;SDS011;36212;48.838;9.142;2022-09-09T16:13:48;1.63;;;1.20;;
2544;SDS011;36212;48.838;9.142;2022-09-09T16:16:23;2.83;;;1.23;;
2544;SDS011;36212;48.838;9.142;2022-09-09T16:18:59;2.60;;;1.40;;
2544;SDS011;36212;48.838;9.142;2022-09-09T16:21:39;1.13;;;1.00;;
2544;SDS011;36212;48.838;9.142;2022-09-09T16:24:17;2.30;;;0.80;;
2544;SDS011;36212;48.838;9.142;2022-09-09T16:26:51;1.10;;;1.00;;
2544;SDS011;36212;48.838;9.142;2022-09-09T16:29:24;4.27;;;1.00;;
2544;SDS011;36212;48.838;9.142;2022-09-09T16:31:58;2.80;;;1.00;;
2544;SDS011;36212;48.838;9.142;2022-09-09T16:34:34;1.33;;;0.80;;
2544;SDS011;36212;48.838;9.142;2022-09-09T16:37:07;1.27;;;1.00;;
2544;SDS011;36212;48.838;9.142;2022-09-09T16:39:39;0.97;;;0.80;;
2544;SDS011;36212;48.838;9.142;2022-09-09T16:42:11;2.73;;;0.90;;
2544;SDS011;36212;48.838;9.142;2022-09-09T16:44:43;0.90;;;0.80;;
2544;SDS011;36212;48.838;9.142;2022-09-09T16:47:15;0.90;;;0.80;;
2544;SDS011;36212;48.838;9.142;2022-09-09T16:49:48;2.13;;;1.00;;
2544;SDS011;36212;48.838;9.142;2022-09-09T16:52:20;2.80;;;1.20;;
2544;SDS011;36212;48.838;9.142;2022-09-09T16:54:52;0.80;;;0.70;;
2544;SDS011;36212;48.838;9.142;2022-09-09T16:57:24;1.77;;;0.90;;
2544;SDS011;36212;48.838;9.142;2022-09-09T16:59:56;1.27;;;0.77;;
2544;SDS011;36212;48.838;9.142;2022-09-09T17:02:31;1.50;;;0.90;;
2544;SDS011;36212;48.838;9.142;2022-09-09T17:05:03;1.10;;;1.00;;
2544;SDS011;36212;48.838;9.142;2022-09-09T17:07:36;0.80;;;0.70;;
2544;SDS011;36212;48.838;9.142;2022-09-09T17:10:08;1.20;;;0.90;;
2544;SDS011;36212;48.838;9.142;2022-09-09T17:12:41;1.00;;;0.90;;
2544;SDS011;36212;48.838;9.142;2022-09-09T17:15:13;0.80;;;0.80;;
2544;SDS011;36212;48.838;9.142;2022-09-09T17:17:48;1.33;;;0.80;;
2544;SDS011;36212;48.838;9.142;2022-09-09T17:20:23;0.90;;;0.80;;
2544;SDS011;36212;48.838;9.142;2022-09-09T17:23:10;1.20;;;1.00;;
2544;SDS011;36212;48.838;9.142;2022-09-09T17:25:45;0.80;;;0.80;;
2544;SDS011;36212;48.838;9.142;2022-09-09T17:28:31;0.87;;;0.80;;
2544;SDS011;36212;48.838;9.142;2022-09-09T17:31:04;1.37;;;0.87;;
2544;SDS011;36212;48.838;9.142;2022-09-09T17:33:42;1.10;;;0.90;;
2544;SDS011;36212;48.838;9.142;2022-09-09T17:36:22;2.23;;;1.30;;
2544;SDS011;36212;48.838;9.142;2022-09-09T17:39:02;1.10;;;0.97;;
2544;SDS011;36212;48.838;9.142;2022-09-09T17:41:36;1.20;;;1.10;;
2544;SDS011;36212;48.838;9.142;2022-09-09T17:44:10;1.00;;;0.90;;
2544;SDS011;36212;48.838;9.142;2022-09-09T17:46:43;1.10;;;1.00;;
2544;SDS011;36212;48.838;9.142;2022-09-09T17:49:17;1.10;;;0.90;;
2544;SDS011;36212;48.838;9.142;2022-09-09T17:51:49;1.13;;;1.00;;
2544;SDS011;36212;48.838;9.142;2022-09-09T17:54:23;1.03;;;0.93;;
2544;SDS011;36212;48.838;9.142;2022-09-09T17:56:56;2.03;;;1.20;;
2544;SDS011;36212;48.838;9.142;2022-09-09T17:59:29;1.10;;;1.00;;
2544;SDS011;36212;48.838;9.142;2022-09-09T18:02:02;1.10;;;0.93;;
2544;SDS011;36212;48.838;9.142;2022-09-09T18:04:36;1.10;;;1.00;;
2544;SDS011;36212;48.838;9.142;2022-09-09T18:07:08;1.47;;;1.00;;
2544;SDS011;36212;48.838;9.142;2022-09-09T18:09:40;1.10;;;1.00;;
2544;SDS011;36212;48.838;9.142;2022-09-09T18:12:13;2.40;;;1.00;;
2544;SDS011;36212;48.838;9.142;2022-09-09T18:14:46;4.50;;;1.27;;
2544;SDS011;36212;48.838;9.142;2022-09-09T18:17:20;1.20;;;1.10;;
2544;SDS011;36212;48.838;9.142;2022-09-09T18:19:52;1.80;;;1.40;;
2544;SDS011;36212;48.838;9.142;2022-09-09T18:22:30;1.43;;;1.10;;
2544;SDS011;36212;48.838;9.142;2022-09-09T18:25:10;1.88;;;1.52;;
2544;SDS011;36212;48.838;9.142;2022-09-09T18:27:44;1.47;;;1.07;;
2544;SDS011;36212;48.838;9.142;2022-09-09T18:30:17;2.07;;;1.30;;
2544;SDS011;36212;48.838;9.142;2022-09-09T18:32:53;2.17;;;1.30;;
2544;SDS011;36212;48.838;9.142;2022-09-09T18:35:25;1.40;;;1.10;;
2544;SDS011;36212;48.838;9.142;2022-09-09T18:37:58;4.83;;;1.40;;
2544;SDS011;36212;48.838;9.142;2022-09-09T18:40:30;1.60;;;1.50;;
2544;SDS011;36212;48.838;9.142;2022-09-09T18:43:03;1.47;;;1.37;;